Terminal Aerodrome Forecast
Issued by NWS Atlanta, GA

Home | Current Version | Previous Version | Text Only | Print | Product List | Glossary On
Versions: 1 2 3 4 5 6 7 8 9 10 11 12 13 14 15 16 17 18 19 20 21 22 23 24 25 26 27 28 29 30 31 32 33 34 35 36 37 38 39 40 41 42 43 44
119
FTUS42 KFFC 241935 AAA
TAFAHN
TAF AMD
KAHN 241935Z 2420/2518 19010KT P6SM VCSH SCT009 BKN025
      TEMPO 2420/2423 VRB15G25KT 4SM TSRA BKN009CB
     FM242300 24012G18KT P6SM VCSH BKN050
     FM250200 27007KT P6SM BKN080
     FM251000 26007KT P6SM BKN015
     FM251500 27013G19KT P6SM BKN025=

USA.gov is the U.S. government's official web portal to all federal, state and local government web resources and services.